Greta — WDF3298 — position and weather

sailwx.info

Track history (hours):
 
Tides and Currents Weather Stations Pressure Air Temp Water Temp Dewpoint Dewpoint Depression Visibility Wind Speed Wind Dir Waves Ship Positions

Greta

Owner: General Electric Credit Corporation Of Tennessee, Seattle, WA. More information available from US FCC via Universal Licensing System and Coast Guard Vessel Documentation Center.

Last reported at 2017-Oct-23 18:05 UTC. Time now 2017-Dec-11 02:29 UTC.
Position N 47°32' W 122°20'.
Warning: this ship's position is 48 days out of date.

Length 44 m; draft 2 m.

Type: Ship. MMSI: 367438220.

Date/timePositionNaut miles runAvg speedWind from/ knotsBaromVisibWave heightAir tempDewpointWater temp
2017-Oct-23 18:05N 47°32' W 122°20'0 0.1
2017-Oct-23 17:43N 47°32' W 122°20'0 0.0
2017-Oct-23 17:30N 47°32' W 122°20'1 1.7
2017-Oct-23 17:00N 47°33' W 122°20'0 0.2
2017-Oct-23 16:30N 47°33' W 122°20'0 0.0
2017-Oct-23 16:00N 47°33' W 122°20'0 0.0
2017-Oct-23 15:30N 47°33' W 122°20'0 0.0
2017-Oct-23 15:00N 47°33' W 122°20'0 0.0
2017-Oct-23 14:30N 47°33' W 122°20'0 0.0
2017-Oct-23 14:00N 47°33' W 122°20'0 0.0
2017-Oct-23 13:30N 47°33' W 122°20'0 0.0
2017-Oct-23 13:00N 47°33' W 122°20'0 0.0
2017-Oct-23 12:30N 47°33' W 122°20'0 0.0
2017-Oct-23 12:00N 47°33' W 122°20'0 0.0
2017-Oct-23 11:30N 47°33' W 122°20'0 0.0
2017-Oct-23 11:00N 47°33' W 122°20'0 0.0
2017-Oct-23 10:30N 47°33' W 122°20'0 0.0
2017-Oct-23 10:00N 47°33' W 122°20'0 0.0
2017-Oct-23 09:30N 47°33' W 122°20'0 0.0
2017-Oct-23 09:00N 47°33' W 122°20'0 0.0
2017-Oct-23 08:30N 47°33' W 122°20'0 0.0
2017-Oct-23 08:00N 47°33' W 122°20'0 0.0
2017-Oct-23 07:30N 47°33' W 122°20'0 0.0
2017-Oct-23 07:00N 47°33' W 122°20'0 0.0
2017-Oct-23 06:30N 47°33' W 122°20'0 0.0
2017-Oct-23 06:00N 47°33' W 122°20'0 0.0
2017-Oct-23 05:30N 47°33' W 122°20'0 0.0
2017-Oct-23 05:00N 47°33' W 122°20'0 0.0
2017-Oct-23 04:30N 47°33' W 122°20'0 0.0
2017-Oct-23 04:00N 47°33' W 122°20'1 2.8
2017-Oct-23 03:30N 47°34' W 122°21'3 6.4
2017-Oct-23 03:00N 47°37' W 122°24'3 6.9
2017-Oct-23 02:30N 47°40' W 122°27'4 7.3
2017-Oct-23 02:00N 47°43' W 122°28'4 7.9
2017-Oct-23 01:30N 47°47' W 122°27'4 7.7
2017-Oct-23 01:00N 47°51' W 122°29'4 8.4
2017-Oct-23 00:30N 47°55' W 122°30'5 9.4
2017-Oct-23 00:00N 47°58' W 122°35'16 9.1
2017-Oct-22 22:15N 48°11' W 122°48'3 8.6
2017-Oct-22 21:55N 48°14' W 122°49'5 9.1
2017-Oct-22 21:24N 48°19' W 122°47'3 8.8
2017-Oct-22 21:00N 48°22' W 122°46'4 8.8
2017-Oct-22 20:30N 48°27' W 122°45'510.0
2017-Oct-22 20:00N 48°32' W 122°45'510.0
2017-Oct-22 19:30N 48°37' W 122°45'5 9.2
2017-Oct-22 19:00N 48°41' W 122°44'5 8.9
2017-Oct-22 18:28N 48°45' W 122°48'5 9.6
2017-Oct-22 18:00N 48°47' W 122°54'5 9.4
2017-Oct-22 17:30N 48°50' W 123°00'4 8.8
2017-Oct-22 17:00N 48°52' W 123°06'5 9.1
2017-Oct-22 16:30N 48°55' W 123°11'4 8.7
2017-Oct-22 16:00N 48°58' W 123°16'4 8.4
2017-Oct-22 15:30N 49°01' W 123°21'4 8.3
2017-Oct-22 15:00N 49°04' W 123°25'4 8.1
2017-Oct-22 14:30N 49°07' W 123°30'4 7.6
2017-Oct-22 14:00N 49°09' W 123°34'4 7.7
2017-Oct-22 13:30N 49°12' W 123°39'4 8.6
2017-Oct-22 13:00N 49°14' W 123°44'4 8.2
2017-Oct-22 12:30N 49°17' W 123°48'4 7.6
2017-Oct-22 12:00N 49°20' W 123°53'4 8.3
2017-Oct-22 11:30N 49°22' W 123°57'4 8.1
2017-Oct-22 11:00N 49°25' W 124°02'3 6.7
2017-Oct-22 10:30N 49°27' W 124°06'4 7.2
2017-Oct-22 10:00N 49°30' W 124°10'4 7.3
2017-Oct-22 09:30N 49°32' W 124°15'4 7.7
2017-Oct-22 09:00N 49°33' W 124°20'4 7.6
2017-Oct-22 08:30N 49°35' W 124°25'3 6.8
2017-Oct-22 08:00N 49°38' W 124°29'3 6.3
2017-Oct-22 07:30N 49°40' W 124°33'3 6.5
2017-Oct-22 07:00N 49°42' W 124°37'3 5.6
2017-Oct-22 06:31N 49°43' W 124°40'3 5.2
2017-Oct-22 06:00N 49°45' W 124°43'2 4.7
2017-Oct-22 05:30N 49°46' W 124°46'2 4.7
2017-Oct-22 05:00N 49°48' W 124°49'2 3.6
2017-Oct-22 04:30N 49°49' W 124°51'1 2.1
2017-Oct-22 04:00N 49°50' W 124°53'1 2.3
2017-Oct-22 03:30N 49°50' W 124°54'1 2.7
2017-Oct-22 03:00N 49°51' W 124°56'2 3.1
2017-Oct-22 02:30N 49°52' W 124°57'2 3.0
2017-Oct-22 02:00N 49°53' W 124°59'2 3.4
2017-Oct-22 01:30N 49°54' W 125°02'2 3.3
2017-Oct-22 01:00N 49°55' W 125°04'2 3.2
2017-Oct-22 00:30N 49°56' W 125°06'1 3.0
2017-Oct-22 00:00N 49°57' W 125°08'2 3.2
2017-Oct-21 23:30N 49°57' W 125°10'2 3.8
2017-Oct-21 23:01N 49°59' W 125°11'4 7.4
2017-Oct-21 22:30N 50°02' W 125°14'5 9.7
2017-Oct-21 22:00N 50°06' W 125°18'5 9.8
2017-Oct-21 21:30N 50°11' W 125°22'4 8.3
2017-Oct-21 21:00N 50°15' W 125°23'4 7.8
2017-Oct-21 20:30N 50°18' W 125°25'5 6.8
2017-Oct-21 19:47N 50°21' W 125°32'7 6.4
2017-Oct-21 18:46N 50°22' W 125°42'44 5.3
2017-Oct-21 10:30N 50°37' W 126°47'5 7.6
2017-Oct-21 09:54N 50°40' W 126°52'3 7.4
2017-Oct-21 09:30N 50°42' W 126°55'5 7.5
2017-Oct-21 08:52N 50°45' W 127°01'3 7.6
2017-Oct-21 08:29N 50°47' W 127°05'4 7.3
2017-Oct-21 08:00N 50°49' W 127°09'4 7.5
2017-Oct-21 07:30N 50°51' W 127°14'4 7.8
2017-Oct-21 07:00N 50°53' W 127°20'4 8.2
2017-Oct-21 06:30N 50°55' W 127°25'4 7.9
2017-Oct-21 06:00N 50°58' W 127°30'4 7.6
2017-Oct-21 05:30N 51°00' W 127°35'4 7.2
2017-Oct-21 05:00N 51°03' W 127°39'3 7.0
2017-Oct-21 04:30N 51°05' W 127°43'3 6.7
2017-Oct-21 04:00N 51°07' W 127°47'3 6.6
2017-Oct-21 03:29N 51°10' W 127°50'10 6.9
2017-Oct-21 02:01N 51°20' W 127°52'0 6.9
2017-Oct-21 01:59N 51°20' W 127°52'4 7.7
2017-Oct-21 01:30N 51°24' W 127°52'5 7.6
2017-Oct-21 00:52N 51°29' W 127°52'3 8.1
2017-Oct-21 00:30N 51°32' W 127°53'154 6.8
2017-Oct-20 01:47N 53°46' W 129°55'2 7.4
2017-Oct-20 01:30N 53°48' W 129°57'4 7.4
2017-Oct-20 01:00N 53°51' W 130°02'4 7.4
2017-Oct-20 00:30N 53°53' W 130°06'4 7.5
2017-Oct-20 00:00N 53°55' W 130°11'4 7.9
2017-Oct-19 23:30N 53°59' W 130°13'4 7.2
2017-Oct-19 23:00N 54°02' W 130°15'3 7.0
2017-Oct-19 22:30N 54°05' W 130°19'4 7.5
2017-Oct-19 22:00N 54°07' W 130°24'4 7.2
2017-Oct-19 21:30N 54°10' W 130°29'4 7.7
2017-Oct-19 21:00N 54°11' W 130°35'4 7.9
2017-Oct-19 20:30N 54°13' W 130°40'4 7.7
2017-Oct-19 20:00N 54°15' W 130°46'3 6.6
2017-Oct-19 19:30N 54°18' W 130°50'3 6.2
2017-Oct-19 19:00N 54°19' W 130°55'3 5.4
2017-Oct-19 18:30N 54°20' W 130°59'2 5.0
2017-Oct-19 18:00N 54°22' W 131°02'3 5.4
2017-Oct-19 17:30N 54°23' W 131°06'3 4.8
2017-Oct-19 16:49N 54°25' W 131°11'  
2017-Oct-17 05:14N 58°12' W 135°27'2 8.1
2017-Oct-17 04:56N 58°13' W 135°31'4 7.9
2017-Oct-17 04:28N 58°15' W 135°37'4 8.8
2017-Oct-17 04:00N 58°17' W 135°44'5 9.3
2017-Oct-17 03:30N 58°18' W 135°52'510.3
2017-Oct-17 03:01N 58°20' W 136°02'5 9.6
2017-Oct-17 02:30N 58°19' W 136°11'  
Track history (hours):
 
Tides and Currents Weather Stations Pressure Air Temp Water Temp Dewpoint Dewpoint Depression Visibility Wind Speed Wind Dir Waves Ship Positions

Greta

Owner: General Electric Credit Corporation Of Tennessee, Seattle, WA. More information available from US FCC via Universal Licensing System and Coast Guard Vessel Documentation Center.

Last reported at 2017-Oct-23 18:05 UTC. Time now 2017-Dec-11 02:29 UTC.
Position N 47°32' W 122°20'.
Warning: this ship's position is 48 days out of date.

Length 44 m; draft 2 m.

Type: Ship. MMSI: 367438220.

Date/timePositionNaut miles runAvg speedWind from/ knotsBaromVisibWave heightAir tempDewpointWater temp
2017-Oct-23 18:05N 47°32' W 122°20'0 0.1
2017-Oct-23 17:43N 47°32' W 122°20'0 0.0
2017-Oct-23 17:30N 47°32' W 122°20'1 1.7
2017-Oct-23 17:00N 47°33' W 122°20'0 0.2
2017-Oct-23 16:30N 47°33' W 122°20'0 0.0
2017-Oct-23 16:00N 47°33' W 122°20'0 0.0
2017-Oct-23 15:30N 47°33' W 122°20'0 0.0
2017-Oct-23 15:00N 47°33' W 122°20'0 0.0
2017-Oct-23 14:30N 47°33' W 122°20'0 0.0
2017-Oct-23 14:00N 47°33' W 122°20'0 0.0
2017-Oct-23 13:30N 47°33' W 122°20'0 0.0
2017-Oct-23 13:00N 47°33' W 122°20'0 0.0
2017-Oct-23 12:30N 47°33' W 122°20'0 0.0
2017-Oct-23 12:00N 47°33' W 122°20'0 0.0
2017-Oct-23 11:30N 47°33' W 122°20'0 0.0
2017-Oct-23 11:00N 47°33' W 122°20'0 0.0
2017-Oct-23 10:30N 47°33' W 122°20'0 0.0
2017-Oct-23 10:00N 47°33' W 122°20'0 0.0
2017-Oct-23 09:30N 47°33' W 122°20'0 0.0
2017-Oct-23 09:00N 47°33' W 122°20'0 0.0
2017-Oct-23 08:30N 47°33' W 122°20'0 0.0
2017-Oct-23 08:00N 47°33' W 122°20'0 0.0
2017-Oct-23 07:30N 47°33' W 122°20'0 0.0
2017-Oct-23 07:00N 47°33' W 122°20'0 0.0
2017-Oct-23 06:30N 47°33' W 122°20'0 0.0
2017-Oct-23 06:00N 47°33' W 122°20'0 0.0
2017-Oct-23 05:30N 47°33' W 122°20'0 0.0
2017-Oct-23 05:00N 47°33' W 122°20'0 0.0
2017-Oct-23 04:30N 47°33' W 122°20'0 0.0
2017-Oct-23 04:00N 47°33' W 122°20'1 2.8
2017-Oct-23 03:30N 47°34' W 122°21'3 6.4
2017-Oct-23 03:00N 47°37' W 122°24'3 6.9
2017-Oct-23 02:30N 47°40' W 122°27'4 7.3
2017-Oct-23 02:00N 47°43' W 122°28'4 7.9
2017-Oct-23 01:30N 47°47' W 122°27'4 7.7
2017-Oct-23 01:00N 47°51' W 122°29'4 8.4
2017-Oct-23 00:30N 47°55' W 122°30'5 9.4
2017-Oct-23 00:00N 47°58' W 122°35'16 9.1
2017-Oct-22 22:15N 48°11' W 122°48'3 8.6
2017-Oct-22 21:55N 48°14' W 122°49'5 9.1
2017-Oct-22 21:24N 48°19' W 122°47'3 8.8
2017-Oct-22 21:00N 48°22' W 122°46'4 8.8
2017-Oct-22 20:30N 48°27' W 122°45'510.0
2017-Oct-22 20:00N 48°32' W 122°45'510.0
2017-Oct-22 19:30N 48°37' W 122°45'5 9.2
2017-Oct-22 19:00N 48°41' W 122°44'5 8.9
2017-Oct-22 18:28N 48°45' W 122°48'5 9.6
2017-Oct-22 18:00N 48°47' W 122°54'5 9.4
2017-Oct-22 17:30N 48°50' W 123°00'4 8.8
2017-Oct-22 17:00N 48°52' W 123°06'5 9.1
2017-Oct-22 16:30N 48°55' W 123°11'4 8.7
2017-Oct-22 16:00N 48°58' W 123°16'4 8.4
2017-Oct-22 15:30N 49°01' W 123°21'4 8.3
2017-Oct-22 15:00N 49°04' W 123°25'4 8.1
2017-Oct-22 14:30N 49°07' W 123°30'4 7.6
2017-Oct-22 14:00N 49°09' W 123°34'4 7.7
2017-Oct-22 13:30N 49°12' W 123°39'4 8.6
2017-Oct-22 13:00N 49°14' W 123°44'4 8.2
2017-Oct-22 12:30N 49°17' W 123°48'4 7.6
2017-Oct-22 12:00N 49°20' W 123°53'4 8.3
2017-Oct-22 11:30N 49°22' W 123°57'4 8.1
2017-Oct-22 11:00N 49°25' W 124°02'3 6.7
2017-Oct-22 10:30N 49°27' W 124°06'4 7.2
2017-Oct-22 10:00N 49°30' W 124°10'4 7.3
2017-Oct-22 09:30N 49°32' W 124°15'4 7.7
2017-Oct-22 09:00N 49°33' W 124°20'4 7.6
2017-Oct-22 08:30N 49°35' W 124°25'3 6.8
2017-Oct-22 08:00N 49°38' W 124°29'3 6.3
2017-Oct-22 07:30N 49°40' W 124°33'3 6.5
2017-Oct-22 07:00N 49°42' W 124°37'3 5.6
2017-Oct-22 06:31N 49°43' W 124°40'3 5.2
2017-Oct-22 06:00N 49°45' W 124°43'2 4.7
2017-Oct-22 05:30N 49°46' W 124°46'2 4.7
2017-Oct-22 05:00N 49°48' W 124°49'2 3.6
2017-Oct-22 04:30N 49°49' W 124°51'1 2.1
2017-Oct-22 04:00N 49°50' W 124°53'1 2.3
2017-Oct-22 03:30N 49°50' W 124°54'1 2.7
2017-Oct-22 03:00N 49°51' W 124°56'2 3.1
2017-Oct-22 02:30N 49°52' W 124°57'2 3.0
2017-Oct-22 02:00N 49°53' W 124°59'2 3.4
2017-Oct-22 01:30N 49°54' W 125°02'2 3.3
2017-Oct-22 01:00N 49°55' W 125°04'2 3.2
2017-Oct-22 00:30N 49°56' W 125°06'1 3.0
2017-Oct-22 00:00N 49°57' W 125°08'2 3.2
2017-Oct-21 23:30N 49°57' W 125°10'2 3.8
2017-Oct-21 23:01N 49°59' W 125°11'4 7.4
2017-Oct-21 22:30N 50°02' W 125°14'5 9.7
2017-Oct-21 22:00N 50°06' W 125°18'5 9.8
2017-Oct-21 21:30N 50°11' W 125°22'4 8.3
2017-Oct-21 21:00N 50°15' W 125°23'4 7.8
2017-Oct-21 20:30N 50°18' W 125°25'5 6.8
2017-Oct-21 19:47N 50°21' W 125°32'7 6.4
2017-Oct-21 18:46N 50°22' W 125°42'44 5.3
2017-Oct-21 10:30N 50°37' W 126°47'5 7.6
2017-Oct-21 09:54N 50°40' W 126°52'3 7.4
2017-Oct-21 09:30N 50°42' W 126°55'5 7.5
2017-Oct-21 08:52N 50°45' W 127°01'3 7.6
2017-Oct-21 08:29N 50°47' W 127°05'4 7.3
2017-Oct-21 08:00N 50°49' W 127°09'4 7.5
2017-Oct-21 07:30N 50°51' W 127°14'4 7.8
2017-Oct-21 07:00N 50°53' W 127°20'4 8.2
2017-Oct-21 06:30N 50°55' W 127°25'4 7.9
2017-Oct-21 06:00N 50°58' W 127°30'4 7.6
2017-Oct-21 05:30N 51°00' W 127°35'4 7.2
2017-Oct-21 05:00N 51°03' W 127°39'3 7.0
2017-Oct-21 04:30N 51°05' W 127°43'3 6.7
2017-Oct-21 04:00N 51°07' W 127°47'3 6.6
2017-Oct-21 03:29N 51°10' W 127°50'10 6.9
2017-Oct-21 02:01N 51°20' W 127°52'0 6.9
2017-Oct-21 01:59N 51°20' W 127°52'4 7.7
2017-Oct-21 01:30N 51°24' W 127°52'5 7.6
2017-Oct-21 00:52N 51°29' W 127°52'3 8.1
2017-Oct-21 00:30N 51°32' W 127°53'154 6.8
2017-Oct-20 01:47N 53°46' W 129°55'2 7.4
2017-Oct-20 01:30N 53°48' W 129°57'4 7.4
2017-Oct-20 01:00N 53°51' W 130°02'4 7.4
2017-Oct-20 00:30N 53°53' W 130°06'4 7.5
2017-Oct-20 00:00N 53°55' W 130°11'4 7.9
2017-Oct-19 23:30N 53°59' W 130°13'4 7.2
2017-Oct-19 23:00N 54°02' W 130°15'3 7.0
2017-Oct-19 22:30N 54°05' W 130°19'4 7.5
2017-Oct-19 22:00N 54°07' W 130°24'4 7.2
2017-Oct-19 21:30N 54°10' W 130°29'4 7.7
2017-Oct-19 21:00N 54°11' W 130°35'4 7.9
2017-Oct-19 20:30N 54°13' W 130°40'4 7.7
2017-Oct-19 20:00N 54°15' W 130°46'3 6.6
2017-Oct-19 19:30N 54°18' W 130°50'3 6.2
2017-Oct-19 19:00N 54°19' W 130°55'3 5.4
2017-Oct-19 18:30N 54°20' W 130°59'2 5.0
2017-Oct-19 18:00N 54°22' W 131°02'3 5.4
2017-Oct-19 17:30N 54°23' W 131°06'3 4.8
2017-Oct-19 16:49N 54°25' W 131°11'  
2017-Oct-17 05:14N 58°12' W 135°27'2 8.1
2017-Oct-17 04:56N 58°13' W 135°31'4 7.9
2017-Oct-17 04:28N 58°15' W 135°37'4 8.8
2017-Oct-17 04:00N 58°17' W 135°44'5 9.3
2017-Oct-17 03:30N 58°18' W 135°52'510.3
2017-Oct-17 03:01N 58°20' W 136°02'5 9.6
2017-Oct-17 02:30N 58°19' W 136°11'  

Dump ship's entire track history